Time;durP1;ratioP1;P1;durP2;ratioP2;P2;SDS_P1;SDS_P2;PMS_P1;PMS_P2;Temp;Humidity;BMP_temperature;BMP_pressure;BME280_temperature;BME280_humidity;BME280_pressure;Samples;Min_cycle;Max_cycle;Signal;HPM_P1;HPM_P2
2022/08/06 00:00:45;;;;;;;;;;;26.00;46.10;;;;;;5038091;28;19929;-68
2022/08/06 00:03:12;;;;;;;;;;;26.00;46.10;;;;;;5026910;28;19930;-70
2022/08/06 00:05:40;;;;;;;;;;;25.90;46.20;;;;;;5025907;28;19932;-68
2022/08/06 00:08:06;;;;;;;;;;;25.90;46.40;;;;;;5014506;28;20389;-68
2022/08/06 00:10:33;;;;;;;;;;;25.90;46.50;;;;;;5038621;28;20258;-71
2022/08/06 00:13:00;;;;;;;;;;;25.90;46.30;;;;;;5043599;28;20605;-66
2022/08/06 00:15:26;;;;;;;;;;;25.90;46.60;;;;;;5020865;28;19925;-70
2022/08/06 00:17:53;;;;;;;;;;;25.80;46.50;;;;;;5022182;28;20450;-69
2022/08/06 00:20:20;;;;;;;;;;;25.80;46.60;;;;;;5023864;28;20405;-67
2022/08/06 00:22:48;;;;;;;;;;;25.80;46.60;;;;;;5039158;28;20046;-67
2022/08/06 00:25:14;;;;;;;;;;;25.80;46.80;;;;;;5037474;28;19929;-70
2022/08/06 00:27:41;;;;;;;;;;;25.80;46.60;;;;;;5040467;28;19951;-69
2022/08/06 00:30:09;;;;;;;;;;;25.80;46.60;;;;;;5041054;28;19926;-68
2022/08/06 00:32:35;;;;;;;;;;;25.80;46.60;;;;;;5015191;28;20400;-68
2022/08/06 00:35:02;;;;;;;;;;;25.70;46.40;;;;;;5020819;28;20882;-67
2022/08/06 00:37:31;;;;;;;;;;;25.70;46.30;;;;;;5047870;28;20300;-69
2022/08/06 00:39:59;;;;;;;;;;;25.70;46.40;;;;;;5020442;28;19926;-68
2022/08/06 00:42:27;;;;;;;;;;;25.70;46.10;;;;;;5024072;28;19932;-69
2022/08/06 00:44:54;;;;;;;;;;;25.60;46.00;;;;;;5021009;28;19937;-70
2022/08/06 00:47:20;;;;;;;;;;;25.60;45.80;;;;;;5029681;28;19928;-68
2022/08/06 00:49:47;;;;;;;;;;;25.60;45.90;;;;;;5021772;28;19930;-68
2022/08/06 00:52:13;;;;;;;;;;;25.50;45.70;;;;;;5016355;28;19929;-67
2022/08/06 00:54:40;;;;;;;;;;;25.50;46.10;;;;;;5033515;28;20091;-68
2022/08/06 00:57:08;;;;;;;;;;;25.50;46.10;;;;;;5034207;28;19929;-68
2022/08/06 00:59:34;;;;;;;;;;;25.50;46.30;;;;;;5027734;28;19937;-68
2022/08/06 01:02:01;;;;;;;;;;;25.50;46.40;;;;;;5035293;28;20011;-67
2022/08/06 01:04:27;;;;;;;;;;;25.40;46.30;;;;;;5016367;28;20400;-68
2022/08/06 01:06:54;;;;;;;;;;;25.40;46.30;;;;;;5022708;28;19932;-66
2022/08/06 01:09:20;;;;;;;;;;;25.40;46.50;;;;;;5026420;28;19928;-67
2022/08/06 01:11:47;;;;;;;;;;;25.40;46.50;;;;;;5037209;28;19929;-70
2022/08/06 01:14:15;;;;;;;;;;;25.30;46.30;;;;;;5033363;28;19952;-68
2022/08/06 01:16:45;;;;;;;;;;;25.30;46.40;;;;;;5019977;28;20300;-68
2022/08/06 01:19:20;;;;;;;;;;;25.30;46.30;;;;;;5019309;28;19926;-68
2022/08/06 01:21:51;;;;;;;;;;;25.30;46.40;;;;;;5023928;28;19937;-69
2022/08/06 01:24:30;;;;;;;;;;;25.30;47.20;;;;;;5032824;28;19932;-66
2022/08/06 01:27:02;;;;;;;;;;;25.20;46.40;;;;;;5034424;28;19929;-68
2022/08/06 01:29:32;;;;;;;;;;;25.20;46.70;;;;;;5027350;28;19925;-68
2022/08/06 01:32:02;;;;;;;;;;;25.20;46.60;;;;;;5018451;28;20313;-67
2022/08/06 01:34:33;;;;;;;;;;;25.10;46.70;;;;;;5016711;28;19925;-69
2022/08/06 01:37:03;;;;;;;;;;;25.20;46.90;;;;;;5030493;28;19932;-66
2022/08/06 01:39:31;;;;;;;;;;;25.10;46.70;;;;;;5027066;28;20305;-67
2022/08/06 01:41:59;;;;;;;;;;;25.10;46.90;;;;;;5031184;28;19925;-68
2022/08/06 01:44:29;;;;;;;;;;;25.10;46.80;;;;;;5017046;28;19921;-69
2022/08/06 01:46:59;;;;;;;;;;;25.10;47.10;;;;;;5030327;28;20269;-68
2022/08/06 01:49:26;;;;;;;;;;;25.10;47.00;;;;;;5022905;28;19925;-68
2022/08/06 01:51:54;;;;;;;;;;;25.00;47.20;;;;;;5012836;28;19930;-67
2022/08/06 01:54:22;;;;;;;;;;;25.00;47.20;;;;;;5029094;28;19929;-67
2022/08/06 01:56:50;;;;;;;;;;;25.00;47.20;;;;;;5040276;28;20419;-67
2022/08/06 01:59:18;;;;;;;;;;;25.00;47.40;;;;;;5025235;28;19936;-67
2022/08/06 02:01:48;;;;;;;;;;;25.00;47.40;;;;;;5037524;28;20304;-70
2022/08/06 02:04:17;;;;;;;;;;;25.00;47.30;;;;;;5023096;28;19932;-70
2022/08/06 02:06:46;;;;;;;;;;;24.90;47.40;;;;;;5022080;28;19976;-68
2022/08/06 02:09:14;;;;;;;;;;;24.90;47.60;;;;;;5022734;28;19925;-68
2022/08/06 02:11:41;;;;;;;;;;;24.90;47.60;;;;;;5039675;28;19924;-69
2022/08/06 02:14:08;;;;;;;;;;;24.90;47.70;;;;;;5037760;28;19932;-68
2022/08/06 02:16:37;;;;;;;;;;;24.90;47.80;;;;;;5013113;28;19945;-68
2022/08/06 02:19:06;;;;;;;;;;;24.80;47.60;;;;;;5018343;28;19936;-69
2022/08/06 02:21:35;;;;;;;;;;;24.80;47.90;;;;;;5024630;28;19932;-67
2022/08/06 02:24:03;;;;;;;;;;;24.80;47.60;;;;;;5034299;28;19925;-66
2022/08/06 02:26:30;;;;;;;;;;;24.80;47.60;;;;;;5035883;28;19928;-67
2022/08/06 02:28:58;;;;;;;;;;;24.70;47.50;;;;;;5038978;28;20407;-68
2022/08/06 02:31:25;;;;;;;;;;;24.70;47.50;;;;;;5025259;28;19925;-68
2022/08/06 02:33:51;;;;;;;;;;;24.70;47.60;;;;;;5021764;28;20312;-68
2022/08/06 02:36:19;;;;;;;;;;;24.70;47.80;;;;;;5033748;28;19933;-67
2022/08/06 02:38:50;;;;;;;;;;;24.70;48.00;;;;;;5035447;28;19929;-67
2022/08/06 02:41:19;;;;;;;;;;;24.70;48.00;;;;;;5033374;28;19925;-69
2022/08/06 02:43:49;;;;;;;;;;;24.70;48.10;;;;;;5021075;28;20017;-69
2022/08/06 02:46:18;;;;;;;;;;;24.60;48.20;;;;;;5018959;28;19929;-68
2022/08/06 02:48:46;;;;;;;;;;;24.60;48.10;;;;;;5031259;28;19936;-70
2022/08/06 02:51:15;;;;;;;;;;;24.60;48.30;;;;;;5009566;28;19937;-68
2022/08/06 02:53:44;;;;;;;;;;;24.50;48.30;;;;;;5019102;28;19929;-69
2022/08/06 02:56:13;;;;;;;;;;;24.50;48.40;;;;;;5036009;28;20019;-68
2022/08/06 02:58:40;;;;;;;;;;;24.50;47.90;;;;;;5027433;28;19933;-67
2022/08/06 03:01:09;;;;;;;;;;;24.50;48.20;;;;;;5016108;28;19932;-67
2022/08/06 03:03:37;;;;;;;;;;;24.40;48.20;;;;;;5030558;28;19921;-68
2022/08/06 03:06:05;;;;;;;;;;;24.40;48.40;;;;;;5023166;28;20286;-67
2022/08/06 03:08:32;;;;;;;;;;;24.40;48.60;;;;;;5015788;28;19967;-68
2022/08/06 03:10:59;;;;;;;;;;;24.30;48.50;;;;;;5027673;28;19925;-68
2022/08/06 03:13:27;;;;;;;;;;;24.30;48.30;;;;;;5034032;28;19925;-69
2022/08/06 03:15:54;;;;;;;;;;;24.30;48.50;;;;;;5015034;28;20412;-68
2022/08/06 03:18:22;;;;;;;;;;;24.30;48.60;;;;;;5019682;28;19934;-67
2022/08/06 03:20:50;;;;;;;;;;;24.20;48.50;;;;;;5035806;28;19925;-68
2022/08/06 03:23:17;;;;;;;;;;;24.20;48.60;;;;;;5023826;28;19936;-68
2022/08/06 03:25:44;;;;;;;;;;;24.20;48.50;;;;;;5031909;28;19936;-68
2022/08/06 03:28:12;;;;;;;;;;;24.20;48.60;;;;;;5031591;28;19948;-68
2022/08/06 03:30:40;;;;;;;;;;;24.20;48.80;;;;;;5019750;28;19929;-68
2022/08/06 03:33:08;;;;;;;;;;;24.10;48.90;;;;;;5018209;28;19925;-71
2022/08/06 03:35:35;;;;;;;;;;;24.10;49.10;;;;;;5027829;28;19932;-68
2022/08/06 03:38:02;;;;;;;;;;;24.10;49.20;;;;;;5020424;28;19933;-67
2022/08/06 03:40:30;;;;;;;;;;;24.00;49.30;;;;;;5028144;28;19924;-67
2022/08/06 03:42:56;;;;;;;;;;;24.00;49.40;;;;;;5030315;28;20011;-70
2022/08/06 03:45:23;;;;;;;;;;;24.00;49.30;;;;;;5018650;28;19933;-67
2022/08/06 03:47:53;;;;;;;;;;;24.00;49.50;;;;;;5022162;28;20369;-67
2022/08/06 03:50:21;;;;;;;;;;;24.00;49.50;;;;;;5045059;28;19933;-67
2022/08/06 03:52:49;;;;;;;;;;;23.90;49.50;;;;;;5019320;28;19925;-68
2022/08/06 03:55:18;;;;;;;;;;;23.90;49.50;;;;;;5034978;28;19932;-68
2022/08/06 03:57:46;;;;;;;;;;;23.90;49.60;;;;;;5032402;28;19925;-70
2022/08/06 04:00:14;;;;;;;;;;;23.80;49.60;;;;;;5025198;28;19929;-68
2022/08/06 04:02:44;;;;;;;;;;;23.80;49.80;;;;;;5024194;28;19929;-68
2022/08/06 04:05:14;;;;;;;;;;;23.80;49.90;;;;;;5034100;28;19932;-68
2022/08/06 04:07:41;;;;;;;;;;;23.70;50.10;;;;;;5026407;28;20381;-69
2022/08/06 04:10:08;;;;;;;;;;;23.70;49.90;;;;;;5033643;28;19924;-68
2022/08/06 04:12:34;;;;;;;;;;;23.70;50.00;;;;;;5034058;28;20026;-67
2022/08/06 04:15:01;;;;;;;;;;;23.70;50.00;;;;;;5028884;28;19925;-66
2022/08/06 04:17:28;;;;;;;;;;;23.60;50.20;;;;;;5018311;28;19926;-66
2022/08/06 04:19:55;;;;;;;;;;;23.60;50.20;;;;;;5019508;28;19977;-68
2022/08/06 04:22:23;;;;;;;;;;;23.60;50.20;;;;;;5038787;28;19933;-67
2022/08/06 04:24:50;;;;;;;;;;;23.60;50.10;;;;;;5029657;28;19928;-68
2022/08/06 04:27:17;;;;;;;;;;;23.50;50.20;;;;;;5038163;28;19933;-67
2022/08/06 04:29:44;;;;;;;;;;;23.50;50.40;;;;;;5026792;28;20554;-68
2022/08/06 04:32:13;;;;;;;;;;;23.50;50.40;;;;;;5018852;28;19933;-68
2022/08/06 04:34:40;;;;;;;;;;;23.40;50.80;;;;;;5021801;28;19944;-67
2022/08/06 04:37:06;;;;;;;;;;;23.40;50.80;;;;;;5030196;28;20412;-67
2022/08/06 04:39:34;;;;;;;;;;;23.40;50.80;;;;;;5025121;28;19936;-67
2022/08/06 04:42:02;;;;;;;;;;;23.30;50.90;;;;;;5030412;28;19925;-65
2022/08/06 04:44:28;;;;;;;;;;;23.30;50.80;;;;;;5021209;28;19925;-68
2022/08/06 04:46:55;;;;;;;;;;;23.30;50.80;;;;;;5017381;28;19933;-68
2022/08/06 04:49:22;;;;;;;;;;;23.30;51.00;;;;;;5022389;28;19933;-67
2022/08/06 04:51:48;;;;;;;;;;;23.30;51.00;;;;;;5028924;28;19928;-67
2022/08/06 04:54:16;;;;;;;;;;;23.20;50.90;;;;;;5028609;28;19925;-67
2022/08/06 04:56:44;;;;;;;;;;;23.20;51.00;;;;;;5040727;28;19932;-68
2022/08/06 04:59:10;;;;;;;;;;;23.20;51.10;;;;;;5024089;28;19929;-68
2022/08/06 05:01:37;;;;;;;;;;;23.10;51.10;;;;;;5017367;28;19929;-68
2022/08/06 05:04:04;;;;;;;;;;;23.10;51.20;;;;;;5021979;28;19932;-68
2022/08/06 05:06:36;;;;;;;;;;;23.10;51.20;;;;;;5034057;28;19931;-67
2022/08/06 05:09:03;;;;;;;;;;;23.10;51.40;;;;;;5033090;28;19933;-67
2022/08/06 05:11:33;;;;;;;;;;;23.10;51.40;;;;;;5036939;28;20320;-69
2022/08/06 05:14:02;;;;;;;;;;;23.10;51.50;;;;;;5031449;28;20025;-68
2022/08/06 05:16:31;;;;;;;;;;;23.00;51.50;;;;;;5020602;28;19921;-69
2022/08/06 05:18:59;;;;;;;;;;;23.00;51.50;;;;;;5023549;28;19925;-68
2022/08/06 05:21:28;;;;;;;;;;;23.00;51.50;;;;;;5033000;28;20412;-68
2022/08/06 05:23:55;;;;;;;;;;;22.90;51.60;;;;;;5024035;28;19929;-68
2022/08/06 05:26:22;;;;;;;;;;;22.90;51.80;;;;;;5036547;28;19952;-68
2022/08/06 05:28:49;;;;;;;;;;;22.90;51.70;;;;;;5037788;28;20282;-67
2022/08/06 05:31:28;;;;;;;;;;;22.80;51.70;;;;;;5024786;28;19932;-71
2022/08/06 05:33:55;;;;;;;;;;;22.80;51.70;;;;;;5017332;28;20381;-67
2022/08/06 05:36:21;;;;;;;;;;;22.80;51.80;;;;;;5016808;28;19973;-67
2022/08/06 05:38:48;;;;;;;;;;;22.80;51.80;;;;;;5027038;28;19971;-68
2022/08/06 05:41:14;;;;;;;;;;;22.80;51.80;;;;;;5023094;28;19929;-69
2022/08/06 05:43:41;;;;;;;;;;;22.70;51.80;;;;;;5022856;28;19937;-65
2022/08/06 05:46:09;;;;;;;;;;;22.70;51.80;;;;;;5017413;28;19927;-67
2022/08/06 05:48:38;;;;;;;;;;;22.70;51.80;;;;;;5032842;28;20423;-67
2022/08/06 05:51:07;;;;;;;;;;;22.70;51.90;;;;;;5025965;28;19932;-70
2022/08/06 05:53:35;;;;;;;;;;;22.60;52.00;;;;;;5026014;28;19929;-71
2022/08/06 05:56:05;;;;;;;;;;;22.60;52.00;;;;;;5031609;28;19933;-70
2022/08/06 05:58:35;;;;;;;;;;;22.60;52.10;;;;;;5035774;28;19933;-70
2022/08/06 06:01:02;;;;;;;;;;;22.60;52.20;;;;;;5019773;28;19929;-71
2022/08/06 06:03:29;;;;;;;;;;;22.60;52.10;;;;;;5023710;28;20004;-70
2022/08/06 06:05:58;;;;;;;;;;;22.60;52.00;;;;;;5035803;28;20377;-71
2022/08/06 06:08:25;;;;;;;;;;;22.50;52.20;;;;;;5020405;28;20396;-70
2022/08/06 06:10:52;;;;;;;;;;;22.50;52.20;;;;;;5035928;28;20039;-72
2022/08/06 06:13:18;;;;;;;;;;;22.50;52.20;;;;;;5041143;28;20004;-70
2022/08/06 06:15:48;;;;;;;;;;;22.50;52.20;;;;;;5015746;28;19926;-71
2022/08/06 06:18:22;;;;;;;;;;;22.50;52.20;;;;;;5018357;28;19925;-72
2022/08/06 06:20:53;;;;;;;;;;;22.50;52.20;;;;;;5040108;28;19947;-72
2022/08/06 06:23:24;;;;;;;;;;;22.50;52.30;;;;;;5025364;28;20474;-70
2022/08/06 06:25:56;;;;;;;;;;;22.40;52.20;;;;;;5039655;28;19929;-70
2022/08/06 06:28:25;;;;;;;;;;;22.40;52.20;;;;;;5038910;28;19955;-71
2022/08/06 06:30:54;;;;;;;;;;;22.40;52.30;;;;;;5028701;28;20337;-71
2022/08/06 06:33:24;;;;;;;;;;;22.40;52.40;;;;;;5017781;28;19926;-70
2022/08/06 06:35:54;;;;;;;;;;;22.40;52.30;;;;;;5029586;28;20388;-70
2022/08/06 06:38:38;;;;;;;;;;;22.40;52.30;;;;;;5034797;28;20019;-69
2022/08/06 06:41:09;;;;;;;;;;;22.40;52.40;;;;;;5026116;28;19933;-70
2022/08/06 06:43:38;;;;;;;;;;;22.40;52.60;;;;;;5022699;28;19968;-70
2022/08/06 06:46:07;;;;;;;;;;;22.30;52.40;;;;;;5016121;28;19964;-70
2022/08/06 06:48:36;;;;;;;;;;;22.40;52.40;;;;;;5026304;28;20190;-72
2022/08/06 06:51:04;;;;;;;;;;;22.30;52.40;;;;;;5031562;28;19929;-71
2022/08/06 06:53:33;;;;;;;;;;;22.40;52.40;;;;;;5026002;28;19933;-71
2022/08/06 06:56:01;;;;;;;;;;;22.40;52.60;;;;;;5032209;28;19932;-70
2022/08/06 06:58:32;;;;;;;;;;;22.30;52.20;;;;;;5012440;28;19925;-71
2022/08/06 07:00:58;;;;;;;;;;;22.30;52.40;;;;;;5038698;28;19925;-70
2022/08/06 07:03:27;;;;;;;;;;;22.30;52.40;;;;;;5024413;28;19933;-70
2022/08/06 07:05:55;;;;;;;;;;;22.30;52.40;;;;;;5019430;28;19925;-69
2022/08/06 07:08:23;;;;;;;;;;;22.30;52.40;;;;;;5042264;28;19921;-70
2022/08/06 07:10:51;;;;;;;;;;;22.30;52.30;;;;;;5031260;28;19925;-70
2022/08/06 07:13:20;;;;;;;;;;;22.40;52.20;;;;;;5043780;28;19929;-70
2022/08/06 07:15:48;;;;;;;;;;;22.40;52.20;;;;;;5025276;28;19929;-69
2022/08/06 07:18:15;;;;;;;;;;;22.40;52.10;;;;;;5022185;28;19926;-72
2022/08/06 07:20:43;;;;;;;;;;;22.40;52.10;;;;;;5045047;28;19929;-69
2022/08/06 07:23:10;;;;;;;;;;;22.40;52.30;;;;;;5030071;28;19935;-70
2022/08/06 07:25:38;;;;;;;;;;;22.40;51.90;;;;;;5032977;28;19927;-71
2022/08/06 07:28:05;;;;;;;;;;;22.40;52.30;;;;;;5042154;28;20300;-70
2022/08/06 07:30:33;;;;;;;;;;;22.40;52.40;;;;;;5039145;28;20641;-70
2022/08/06 07:33:00;;;;;;;;;;;22.40;52.30;;;;;;5024783;28;19960;-71
2022/08/06 07:35:26;;;;;;;;;;;22.40;52.00;;;;;;5028410;28;20411;-70
2022/08/06 07:37:54;;;;;;;;;;;22.50;51.80;;;;;;5043879;28;19936;-71
2022/08/06 07:40:23;;;;;;;;;;;22.40;51.70;;;;;;5036385;28;20466;-70
2022/08/06 07:42:53;;;;;;;;;;;22.50;51.50;;;;;;5029136;28;19936;-71
2022/08/06 07:45:21;;;;;;;;;;;22.50;51.50;;;;;;5023880;28;19952;-72
2022/08/06 07:47:49;;;;;;;;;;;22.50;51.20;;;;;;5035805;28;19929;-70
2022/08/06 07:50:16;;;;;;;;;;;22.50;51.30;;;;;;5024689;28;19932;-70
2022/08/06 07:52:43;;;;;;;;;;;22.50;51.10;;;;;;5021867;28;20715;-70
2022/08/06 07:55:11;;;;;;;;;;;22.50;50.90;;;;;;5036947;28;20425;-72
2022/08/06 07:57:38;;;;;;;;;;;22.50;50.70;;;;;;5035387;28;19934;-71
2022/08/06 08:00:05;;;;;;;;;;;22.60;50.60;;;;;;5031920;28;20475;-71
2022/08/06 08:02:32;;;;;;;;;;;22.50;50.70;;;;;;5041322;28;19933;-70
2022/08/06 08:07:45;;;;;;;;;;;22.60;50.40;;;;;;5023162;28;19952;-70
2022/08/06 08:10:11;;;;;;;;;;;22.50;50.10;;;;;;5035141;28;19932;-72
2022/08/06 08:12:38;;;;;;;;;;;22.60;50.00;;;;;;5038875;28;19925;-70
2022/08/06 08:15:06;;;;;;;;;;;22.60;49.90;;;;;;5027294;28;19937;-71
2022/08/06 08:17:32;;;;;;;;;;;22.60;49.60;;;;;;5025517;28;19929;-69
2022/08/06 08:20:03;;;;;;;;;;;22.60;49.40;;;;;;5019050;28;19929;-70
2022/08/06 08:22:30;;;;;;;;;;;22.70;49.40;;;;;;5035300;28;20011;-71
2022/08/06 08:24:56;;;;;;;;;;;22.70;49.30;;;;;;5030518;28;19930;-71
2022/08/06 08:27:23;;;;;;;;;;;22.70;49.20;;;;;;5040357;28;19952;-70
2022/08/06 08:29:50;;;;;;;;;;;22.70;49.00;;;;;;5032814;28;19932;-72
2022/08/06 08:32:17;;;;;;;;;;;22.70;49.00;;;;;;5019806;28;20052;-71
2022/08/06 08:34:44;;;;;;;;;;;22.80;48.60;;;;;;5021497;28;19933;-70
2022/08/06 08:37:12;;;;;;;;;;;22.80;48.60;;;;;;5020625;28;19926;-70
2022/08/06 08:39:38;;;;;;;;;;;22.80;48.60;;;;;;5030695;28;19933;-71
2022/08/06 08:42:09;;;;;;;;;;;22.80;48.50;;;;;;5036025;28;20487;-70
2022/08/06 08:44:35;;;;;;;;;;;22.90;48.20;;;;;;5019455;28;19937;-71
2022/08/06 08:47:02;;;;;;;;;;;22.90;48.10;;;;;;5016273;28;19929;-70
2022/08/06 08:49:32;;;;;;;;;;;22.90;47.90;;;;;;5027629;28;19929;-70
2022/08/06 08:52:02;;;;;;;;;;;23.00;47.90;;;;;;5024838;28;19932;-70
2022/08/06 08:54:32;;;;;;;;;;;23.00;47.90;;;;;;5021371;28;19933;-70
2022/08/06 08:56:58;;;;;;;;;;;23.00;47.50;;;;;;5043845;28;19932;-70
2022/08/06 08:59:25;;;;;;;;;;;23.10;47.50;;;;;;5024054;28;19925;-69
2022/08/06 09:01:52;;;;;;;;;;;23.10;47.50;;;;;;5039001;28;19932;-70
2022/08/06 09:04:19;;;;;;;;;;;23.10;47.20;;;;;;5023455;28;20385;-70
2022/08/06 09:06:46;;;;;;;;;;;23.10;47.30;;;;;;5033489;28;19929;-70
2022/08/06 09:09:12;;;;;;;;;;;23.10;46.90;;;;;;5017197;28;19932;-71
2022/08/06 09:11:40;;;;;;;;;;;23.20;47.70;;;;;;5037765;28;19936;-71
2022/08/06 09:14:07;;;;;;;;;;;23.20;46.40;;;;;;5031705;28;19926;-70
2022/08/06 09:16:35;;;;;;;;;;;23.20;46.20;;;;;;5021111;28;19929;-70
2022/08/06 09:19:03;;;;;;;;;;;23.30;46.20;;;;;;5022424;28;19936;-70
2022/08/06 09:21:29;;;;;;;;;;;23.30;45.90;;;;;;5044484;28;19929;-73
2022/08/06 09:23:56;;;;;;;;;;;23.30;45.90;;;;;;5018098;28;20394;-70
2022/08/06 09:26:22;;;;;;;;;;;23.40;45.30;;;;;;5040411;28;19952;-70
2022/08/06 09:28:50;;;;;;;;;;;23.40;45.20;;;;;;5026702;28;19929;-70
2022/08/06 09:31:18;;;;;;;;;;;23.50;45.60;;;;;;5024252;28;19929;-70
2022/08/06 09:33:53;;;;;;;;;;;23.50;44.60;;;;;;5018847;28;19948;-72
2022/08/06 09:36:20;;;;;;;;;;;23.60;45.00;;;;;;5024813;28;19926;-70
2022/08/06 09:38:47;;;;;;;;;;;23.60;45.10;;;;;;5024295;28;19987;-71
2022/08/06 09:41:14;;;;;;;;;;;23.70;44.50;;;;;;5032370;28;20036;-70
2022/08/06 09:43:41;;;;;;;;;;;23.70;43.70;;;;;;5023784;28;19929;-70
2022/08/06 09:46:09;;;;;;;;;;;23.80;44.60;;;;;;5018966;28;19948;-70
2022/08/06 09:48:36;;;;;;;;;;;23.80;43.80;;;;;;5035097;28;19932;-71
2022/08/06 09:51:03;;;;;;;;;;;23.80;44.50;;;;;;5018582;28;19936;-70
2022/08/06 09:53:30;;;;;;;;;;;23.90;45.00;;;;;;5020134;28;19929;-71
2022/08/06 09:55:57;;;;;;;;;;;24.00;44.80;;;;;;5034915;28;19933;-70
2022/08/06 09:58:28;;;;;;;;;;;24.00;45.70;;;;;;5029551;28;20396;-72
2022/08/06 10:00:55;;;;;;;;;;;24.00;45.40;;;;;;5034712;28;20321;-72
2022/08/06 10:03:23;;;;;;;;;;;24.10;46.90;;;;;;5032257;28;20385;-71
2022/08/06 10:06:03;;;;;;;;;;;24.20;47.30;;;;;;5019428;28;19932;-71
2022/08/06 10:08:29;;;;;;;;;;;24.20;48.10;;;;;;5027485;28;19925;-71
2022/08/06 10:11:00;;;;;;;;;;;24.30;48.60;;;;;;5027596;28;19952;-70
2022/08/06 10:13:27;;;;;;;;;;;24.30;47.30;;;;;;5036478;28;19924;-71
2022/08/06 10:15:55;;;;;;;;;;;24.30;47.80;;;;;;5023160;28;19933;-71
2022/08/06 10:18:39;;;;;;;;;;;24.40;47.80;;;;;;5017202;28;19925;-70
2022/08/06 10:21:06;;;;;;;;;;;24.50;46.70;;;;;;5019263;28;20012;-71
2022/08/06 10:23:33;;;;;;;;;;;24.50;47.50;;;;;;5031572;28;19936;-70
2022/08/06 10:26:01;;;;;;;;;;;24.60;46.90;;;;;;5040533;28;19929;-70
2022/08/06 10:28:28;;;;;;;;;;;24.70;45.70;;;;;;5036678;28;19932;-71
2022/08/06 10:30:55;;;;;;;;;;;24.70;46.10;;;;;;5030080;28;19933;-69
2022/08/06 10:33:23;;;;;;;;;;;24.80;47.10;;;;;;5016383;28;20424;-69
2022/08/06 10:35:52;;;;;;;;;;;24.80;44.20;;;;;;5028518;28;19925;-70
2022/08/06 10:38:21;;;;;;;;;;;24.90;44.10;;;;;;5034389;28;19926;-71
2022/08/06 10:40:49;;;;;;;;;;;25.00;45.50;;;;;;5028150;28;19932;-70
2022/08/06 10:43:16;;;;;;;;;;;25.00;45.90;;;;;;5023959;28;19925;-71
2022/08/06 10:45:42;;;;;;;;;;;25.10;45.10;;;;;;5015603;28;19929;-71
2022/08/06 10:48:10;;;;;;;;;;;25.10;46.40;;;;;;5018821;28;19936;-70
2022/08/06 10:50:38;;;;;;;;;;;25.10;46.40;;;;;;5040838;28;20385;-72
2022/08/06 10:53:08;;;;;;;;;;;25.20;45.70;;;;;;5015650;28;20744;-73
2022/08/06 10:55:35;;;;;;;;;;;25.20;44.70;;;;;;5036030;28;19929;-71
2022/08/06 10:58:03;;;;;;;;;;;25.30;45.20;;;;;;5028920;28;19929;-71
2022/08/06 11:00:32;;;;;;;;;;;25.30;44.10;;;;;;5029322;28;19929;-71
2022/08/06 11:03:01;;;;;;;;;;;25.30;44.60;;;;;;5030406;28;19939;-70
2022/08/06 11:05:30;;;;;;;;;;;25.40;45.10;;;;;;5018747;28;19929;-72
2022/08/06 11:08:10;;;;;;;;;;;25.50;42.80;;;;;;5035634;28;19932;-71
2022/08/06 11:10:59;;;;;;;;;;;25.50;44.20;;;;;;5024586;28;19925;-71
2022/08/06 11:13:29;;;;;;;;;;;25.60;45.40;;;;;;5037150;28;19925;-71
2022/08/06 11:15:55;;;;;;;;;;;25.60;45.00;;;;;;5014377;28;19929;-70
2022/08/06 11:18:22;;;;;;;;;;;25.70;43.10;;;;;;5016335;28;20028;-70
2022/08/06 11:20:49;;;;;;;;;;;25.70;43.00;;;;;;5027271;28;19979;-72
2022/08/06 11:23:25;;;;;;;;;;;25.80;43.50;;;;;;5030766;28;19941;-71
2022/08/06 11:25:52;;;;;;;;;;;25.90;44.10;;;;;;5034074;28;19947;-69
2022/08/06 11:28:19;;;;;;;;;;;25.90;42.80;;;;;;5031486;28;19926;-72
2022/08/06 11:30:46;;;;;;;;;;;25.90;43.80;;;;;;5027033;28;19929;-73
2022/08/06 11:33:14;;;;;;;;;;;26.00;44.10;;;;;;5018806;28;20296;-71
2022/08/06 11:35:45;;;;;;;;;;;26.10;44.00;;;;;;5025564;28;19928;-71
2022/08/06 11:38:13;;;;;;;;;;;26.10;42.80;;;;;;5015197;28;19961;-73
2022/08/06 11:41:00;;;;;;;;;;;26.20;44.70;;;;;;5025796;28;19983;-70
2022/08/06 11:43:46;;;;;;;;;;;26.20;41.90;;;;;;5023513;28;19980;-71
2022/08/06 11:46:19;;;;;;;;;;;26.30;40.90;;;;;;5015176;28;19925;-73
2022/08/06 11:49:04;;;;;;;;;;;26.40;40.30;;;;;;5026580;28;19925;-71
2022/08/06 11:51:37;;;;;;;;;;;26.40;42.00;;;;;;5015071;28;19929;-71
2022/08/06 11:54:11;;;;;;;;;;;26.40;42.60;;;;;;5020255;28;19929;-69
2022/08/06 11:57:04;;;;;;;;;;;26.50;41.50;;;;;;5037232;28;19928;-71
2022/08/06 11:59:32;;;;;;;;;;;26.50;40.80;;;;;;5021432;28;20417;-71
2022/08/06 12:02:00;;;;;;;;;;;26.60;42.30;;;;;;5039071;28;19925;-72
2022/08/06 12:04:44;;;;;;;;;;;26.60;43.50;;;;;;5023775;28;19983;-71
2022/08/06 12:07:18;;;;;;;;;;;26.70;43.30;;;;;;5022603;28;19925;-70
2022/08/06 12:09:45;;;;;;;;;;;26.70;42.10;;;;;;5030671;28;19928;-74
2022/08/06 12:12:31;;;;;;;;;;;26.80;41.70;;;;;;5031084;28;19933;-73
2022/08/06 12:15:00;;;;;;;;;;;26.80;39.90;;;;;;5029769;28;19952;-70
2022/08/06 12:17:27;;;;;;;;;;;26.90;40.60;;;;;;5021674;28;19926;-72
2022/08/06 12:19:54;;;;;;;;;;;26.90;39.10;;;;;;5017660;28;19948;-71
2022/08/06 12:22:23;;;;;;;;;;;26.90;39.70;;;;;;5028620;28;19933;-70
2022/08/06 12:24:50;;;;;;;;;;;27.00;40.70;;;;;;5034934;28;20042;-70
2022/08/06 12:27:17;;;;;;;;;;;27.00;41.90;;;;;;5036830;28;19936;-70
2022/08/06 12:29:44;;;;;;;;;;;27.00;41.30;;;;;;5041147;28;19964;-71
2022/08/06 12:32:22;;;;;;;;;;;27.10;40.90;;;;;;5019214;28;20385;-72
2022/08/06 12:34:49;;;;;;;;;;;27.10;40.30;;;;;;5017996;28;19968;-70
2022/08/06 12:37:15;;;;;;;;;;;27.10;39.80;;;;;;5028932;28;19928;-72
2022/08/06 12:42:27;;;;;;;;;;;27.20;40.60;;;;;;5032572;28;20071;-71
2022/08/06 12:44:54;;;;;;;;;;;27.30;40.80;;;;;;5021421;28;19925;-71
2022/08/06 12:47:22;;;;;;;;;;;27.30;41.30;;;;;;5023418;28;19925;-70
2022/08/06 12:49:48;;;;;;;;;;;27.40;41.00;;;;;;5025663;28;19926;-72
2022/08/06 12:52:17;;;;;;;;;;;27.40;40.90;;;;;;5019397;28;19930;-73
2022/08/06 12:54:44;;;;;;;;;;;27.50;40.20;;;;;;5030751;28;19955;-70
2022/08/06 12:57:19;;;;;;;;;;;27.50;40.10;;;;;;5033371;28;19925;-71
2022/08/06 12:59:46;;;;;;;;;;;27.50;39.60;;;;;;5035219;28;19936;-71
2022/08/06 13:02:12;;;;;;;;;;;27.60;40.50;;;;;;5040147;28;19924;-71
2022/08/06 13:04:42;;;;;;;;;;;27.60;38.30;;;;;;5015985;28;19929;-72
2022/08/06 13:07:09;;;;;;;;;;;27.70;38.40;;;;;;5033590;28;20450;-70
2022/08/06 13:09:36;;;;;;;;;;;27.70;39.20;;;;;;5041030;28;19932;-71
2022/08/06 13:12:13;;;;;;;;;;;27.70;39.40;;;;;;5039750;28;19929;-71
2022/08/06 13:14:48;;;;;;;;;;;27.80;38.10;;;;;;5030960;28;19936;-71
2022/08/06 13:17:15;;;;;;;;;;;27.80;37.50;;;;;;5018949;28;19928;-73
2022/08/06 13:19:52;;;;;;;;;;;27.90;39.60;;;;;;5019926;28;19929;-70
2022/08/06 13:22:19;;;;;;;;;;;27.90;39.70;;;;;;5035089;28;19969;-71
2022/08/06 13:24:45;;;;;;;;;;;28.00;40.20;;;;;;5035078;28;20581;-71
2022/08/06 13:27:12;;;;;;;;;;;28.00;39.40;;;;;;5034367;28;19932;-72
2022/08/06 13:29:38;;;;;;;;;;;28.10;39.90;;;;;;5040597;28;19932;-72
2022/08/06 13:32:06;;;;;;;;;;;28.10;39.50;;;;;;5024724;28;19940;-72
2022/08/06 13:34:45;;;;;;;;;;;28.10;39.00;;;;;;5016656;28;19937;-71
2022/08/06 13:37:13;;;;;;;;;;;28.10;39.50;;;;;;5026678;28;19925;-71
2022/08/06 13:39:49;;;;;;;;;;;28.20;39.00;;;;;;5021411;28;19929;-71
2022/08/06 13:42:16;;;;;;;;;;;28.30;39.10;;;;;;5029419;28;19932;-71
2022/08/06 13:44:43;;;;;;;;;;;28.30;39.70;;;;;;5020222;28;19932;-72
2022/08/06 13:47:12;;;;;;;;;;;28.40;39.00;;;;;;5031772;28;20431;-72
2022/08/06 13:49:38;;;;;;;;;;;28.40;38.90;;;;;;5018952;28;20548;-70
2022/08/06 13:52:05;;;;;;;;;;;28.50;37.70;;;;;;5017384;28;19941;-71
2022/08/06 13:54:34;;;;;;;;;;;28.50;38.40;;;;;;5020023;28;19936;-70
2022/08/06 13:57:01;;;;;;;;;;;28.60;37.90;;;;;;5038230;28;19936;-71
2022/08/06 13:59:28;;;;;;;;;;;28.60;36.60;;;;;;5028246;28;19932;-70
2022/08/06 14:01:57;;;;;;;;;;;28.70;37.70;;;;;;5036591;28;19936;-70
2022/08/06 14:04:24;;;;;;;;;;;28.70;37.30;;;;;;5021393;28;19933;-72
2022/08/06 14:06:51;;;;;;;;;;;28.80;37.40;;;;;;5027644;28;19928;-74
2022/08/06 14:09:19;;;;;;;;;;;28.80;38.20;;;;;;5031685;28;19936;-70
2022/08/06 14:11:47;;;;;;;;;;;28.90;37.50;;;;;;5033570;28;19936;-72
2022/08/06 14:14:13;;;;;;;;;;;29.00;37.60;;;;;;5029941;28;19944;-71
2022/08/06 14:16:40;;;;;;;;;;;29.00;37.10;;;;;;5019179;28;19925;-71
2022/08/06 14:19:06;;;;;;;;;;;29.10;37.00;;;;;;5014432;28;19932;-71
2022/08/06 14:21:33;;;;;;;;;;;29.10;36.50;;;;;;5034143;28;19953;-70
2022/08/06 14:23:59;;;;;;;;;;;29.20;37.50;;;;;;5029453;28;20519;-71
2022/08/06 14:26:26;;;;;;;;;;;29.20;37.80;;;;;;5039060;28;19929;-71
2022/08/06 14:28:54;;;;;;;;;;;29.30;35.70;;;;;;5016353;28;19926;-71